Time;durP1;ratioP1;P1;durP2;ratioP2;P2;SDS_P1;SDS_P2;PMS_P1;PMS_P2;Temp;Humidity;BMP_temperature;BMP_pressure;BME280_temperature;BME280_humidity;BME280_pressure;Samples;Min_cycle;Max_cycle;Signal;HPM_P1;HPM_P2
2022/07/28 00:00:46;;;;;;;4.15;2.10;;;10.00;1.00;;;;;;5051670;28;20064;-87
2022/07/28 00:03:12;;;;;;;2.92;2.10;;;9.90;1.00;;;;;;5049011;28;20107;-89
2022/07/28 00:05:37;;;;;;;2.72;2.10;;;9.90;1.00;;;;;;5050650;28;20044;-89
2022/07/28 00:08:04;;;;;;;2.35;1.92;;;9.90;1.00;;;;;;5034715;28;20487;-90
2022/07/28 00:10:31;;;;;;;4.13;2.53;;;9.90;1.00;;;;;;5053363;28;20075;-88
2022/07/28 00:12:58;;;;;;;5.22;2.40;;;9.80;1.00;;;;;;5090126;28;20032;-88
2022/07/28 00:15:25;;;;;;;4.25;2.70;;;9.80;1.00;;;;;;5062383;28;20126;-89
2022/07/28 00:17:51;;;;;;;6.28;2.70;;;9.70;1.00;;;;;;5050201;28;20265;-89
2022/07/28 00:20:16;;;;;;;5.30;2.85;;;9.80;1.00;;;;;;5079075;28;20075;-89
2022/07/28 00:22:43;;;;;;;4.00;2.72;;;9.70;1.00;;;;;;5046566;28;20036;-88
2022/07/28 00:25:09;;;;;;;4.55;2.70;;;9.60;1.00;;;;;;5028666;28;20051;-89
2022/07/28 00:27:35;;;;;;;4.95;3.15;;;9.70;1.00;;;;;;5049209;28;20037;-89
2022/07/28 00:30:01;;;;;;;5.25;3.00;;;9.70;1.00;;;;;;5064308;28;20043;-89
2022/07/28 00:32:26;;;;;;;6.53;2.75;;;9.70;5.90;;;;;;5031655;28;20121;-88
2022/07/28 00:34:52;;;;;;;3.25;2.40;;;9.70;73.80;;;;;;5076419;28;20036;-88
2022/07/28 00:37:18;;;;;;;4.97;2.60;;;9.60;53.10;;;;;;5047355;28;20837;-88
2022/07/28 00:39:43;;;;;;;4.00;2.83;;;9.60;56.90;;;;;;5052533;28;20028;-89
2022/07/28 00:42:09;;;;;;;3.55;2.53;;;9.60;65.50;;;;;;5047181;28;20051;-89
2022/07/28 00:44:35;;;;;;;6.07;2.97;;;9.70;59.20;;;;;;5069400;28;20052;-89
2022/07/28 00:47:01;;;;;;;4.10;2.63;;;9.60;47.10;;;;;;5050106;28;20048;-88
2022/07/28 00:49:26;;;;;;;5.47;3.08;;;9.60;52.60;;;;;;5045822;28;20134;-88
2022/07/28 00:51:53;;;;;;;4.30;2.90;;;9.70;99.90;;;;;;5046692;28;20032;-88
2022/07/28 00:54:18;;;;;;;5.82;3.75;;;9.60;97.60;;;;;;5078358;28;20059;-88
2022/07/28 00:56:44;;;;;;;8.48;3.20;;;9.60;99.90;;;;;;5047942;28;20085;-87
2022/07/28 00:59:10;;;;;;;4.97;3.08;;;9.60;62.10;;;;;;5062249;28;20432;-88
2022/07/28 01:01:35;;;;;;;4.32;3.38;;;9.60;38.50;;;;;;5064522;28;20040;-87
2022/07/28 01:04:02;;;;;;;3.75;2.95;;;9.60;42.00;;;;;;5033476;28;20366;-88
2022/07/28 01:06:42;;;;;;;6.45;3.53;;;9.60;90.50;;;;;;5056332;28;20611;-87
2022/07/28 01:09:45;;;;;;;7.57;3.20;;;9.50;99.90;;;;;;5032436;28;20059;-88
2022/07/28 01:12:26;;;;;;;3.42;2.65;;;9.50;83.70;;;;;;5055848;28;20045;-87
2022/07/28 01:15:18;;;;;;;4.40;2.80;;;9.50;34.30;;;;;;5046479;28;20072;-88
2022/07/28 01:18:07;;;;;;;4.38;3.10;;;9.50;99.90;;;;;;5067789;28;20311;-87
2022/07/28 01:20:38;;;;;;;5.53;2.97;;;9.50;71.30;;;;;;5046414;28;20071;-87
2022/07/28 01:23:32;;;;;;;4.93;2.90;;;9.50;88.30;;;;;;5059512;28;20441;-88
2022/07/28 01:26:12;;;;;;;5.32;2.72;;;9.60;99.90;;;;;;5072711;28;20037;-87
2022/07/28 01:29:13;;;;;;;3.92;2.70;;;9.60;99.90;;;;;;5074161;28;20111;-87
2022/07/28 01:31:47;;;;;;;4.88;3.42;;;9.50;99.90;;;;;;5047884;28;20040;-87
2022/07/28 01:34:18;;;;;;;4.37;3.07;;;9.50;99.90;;;;;;5028683;28;20036;-87
2022/07/28 01:36:50;;;;;;;4.20;2.70;;;9.50;99.90;;;;;;5049202;28;20119;-87
2022/07/28 01:39:17;;;;;;;3.67;2.72;;;9.50;99.90;;;;;;5052393;28;20083;-87
2022/07/28 01:41:45;;;;;;;3.28;2.83;;;9.60;99.90;;;;;;5043159;28;20050;-86
2022/07/28 01:44:15;;;;;;;5.18;2.70;;;9.40;99.90;;;;;;5050506;28;20052;-87
2022/07/28 01:46:42;;;;;;;5.57;2.92;;;9.40;99.90;;;;;;5080160;28;20058;-86
2022/07/28 01:49:09;;;;;;;4.85;3.15;;;9.30;99.90;;;;;;5086312;28;20147;-87
2022/07/28 01:51:36;;;;;;;5.57;2.92;;;9.40;99.90;;;;;;5032213;28;20097;-87
2022/07/28 01:54:03;;;;;;;5.07;3.00;;;9.40;99.90;;;;;;5042470;28;20507;-87
2022/07/28 01:56:31;;;;;;;4.15;2.78;;;9.50;99.90;;;;;;5048327;28;20040;-88
2022/07/28 01:59:01;;;;;;;9.00;3.88;;;9.50;99.90;;;;;;5035945;28;20057;-87
2022/07/28 02:01:28;;;;;;;4.30;2.55;;;9.60;99.90;;;;;;5052946;28;20035;-86
2022/07/28 02:03:56;;;;;;;4.55;2.88;;;9.50;99.90;;;;;;5034430;28;20113;-88
2022/07/28 02:06:23;;;;;;;4.60;2.60;;;9.50;99.90;;;;;;5050061;28;20044;-87
2022/07/28 02:08:50;;;;;;;3.53;2.70;;;9.40;99.90;;;;;;5061951;28;20039;-86
2022/07/28 02:14:01;;;;;;;3.33;2.75;;;9.40;99.90;;;;;;5053354;28;20055;-87
2022/07/28 02:16:28;;;;;;;6.13;3.13;;;9.40;92.00;;;;;;5035631;28;20036;-88
2022/07/28 02:18:56;;;;;;;3.55;3.00;;;9.40;99.90;;;;;;5066510;28;20044;-87
2022/07/28 02:21:24;;;;;;;4.07;2.80;;;9.40;99.90;;;;;;5058545;28;20171;-88
2022/07/28 02:23:52;;;;;;;3.67;3.10;;;9.30;78.90;;;;;;5050124;28;20111;-86
2022/07/28 02:26:25;;;;;;;5.15;3.35;;;9.30;95.00;;;;;;5030993;28;20052;-87
2022/07/28 02:28:54;;;;;;;4.15;3.05;;;9.30;86.60;;;;;;5061005;28;20028;-87
2022/07/28 02:31:26;;;;;;;4.20;3.47;;;9.30;96.50;;;;;;5034598;28;20051;-86
2022/07/28 02:33:57;;;;;;;4.43;3.47;;;9.30;99.90;;;;;;5058050;28;20043;-87
2022/07/28 02:36:29;;;;;;;4.75;3.20;;;9.20;99.90;;;;;;5042840;28;20028;-86
2022/07/28 02:39:01;;;;;;;4.22;3.17;;;9.20;99.90;;;;;;5077567;28;20036;-87
2022/07/28 02:41:31;;;;;;;4.13;3.10;;;9.10;99.90;;;;;;5078717;28;20115;-87
2022/07/28 02:44:00;;;;;;;4.00;2.92;;;9.20;99.90;;;;;;5077281;28;20044;-87
2022/07/28 02:46:37;;;;;;;4.63;3.40;;;9.10;99.90;;;;;;5035605;28;20511;-87
2022/07/28 02:49:09;;;;;;;4.18;3.20;;;9.20;99.90;;;;;;5033832;28;20173;-87
2022/07/28 02:51:40;;;;;;;5.68;3.47;;;9.10;99.90;;;;;;5047111;28;20044;-86
2022/07/28 02:54:06;;;;;;;5.93;3.50;;;9.20;99.90;;;;;;5044861;28;20035;-87
2022/07/28 02:56:33;;;;;;;7.10;3.75;;;9.20;99.90;;;;;;5050048;28;20110;-86
2022/07/28 02:59:00;;;;;;;4.65;3.95;;;9.00;99.90;;;;;;5035110;28;20075;-86
2022/07/28 03:01:26;;;;;;;5.57;4.00;;;9.10;99.90;;;;;;5025954;28;20139;-86
2022/07/28 03:03:52;;;;;;;6.22;3.60;;;9.10;99.90;;;;;;5072342;28;20040;-86
2022/07/28 03:06:19;;;;;;;8.57;4.07;;;9.10;99.90;;;;;;5059059;28;21998;-86
2022/07/28 03:08:45;;;;;;;5.68;4.00;;;9.20;99.90;;;;;;5049390;28;20112;-86
2022/07/28 03:11:13;;;;;;;8.05;4.10;;;9.10;99.90;;;;;;5074379;28;20047;-86
2022/07/28 03:13:39;;;;;;;5.95;3.50;;;9.10;99.90;;;;;;5034824;28;22407;-86
2022/07/28 03:16:05;;;;;;;4.88;3.50;;;9.00;99.90;;;;;;5057460;28;20032;-86
2022/07/28 03:18:32;;;;;;;5.22;3.38;;;9.00;99.90;;;;;;5036465;28;20036;-87
2022/07/28 03:20:58;;;;;;;7.88;3.97;;;9.00;99.90;;;;;;5057105;28;21874;-86
2022/07/28 03:23:28;;;;;;;5.18;3.20;;;9.00;99.90;;;;;;5061063;28;20044;-86
2022/07/28 03:25:58;;;;;;;4.78;3.28;;;9.00;99.90;;;;;;5075121;28;20102;-86
2022/07/28 03:28:28;;;;;;;4.60;3.60;;;9.00;99.90;;;;;;5029325;28;20048;-86
2022/07/28 03:31:06;;;;;;;4.95;3.60;;;9.10;99.90;;;;;;5077023;28;20040;-85
2022/07/28 03:33:32;;;;;;;4.78;3.42;;;9.20;99.90;;;;;;5048827;28;20044;-87
2022/07/28 03:36:01;;;;;;;5.75;3.50;;;9.20;99.90;;;;;;5044216;28;20494;-87
2022/07/28 03:38:37;;;;;;;4.57;3.50;;;9.20;99.90;;;;;;5050331;28;20606;-86
2022/07/28 03:41:06;;;;;;;6.65;3.75;;;9.30;99.90;;;;;;5058705;28;20112;-86
2022/07/28 03:43:33;;;;;;;5.78;3.80;;;9.30;99.90;;;;;;5033130;28;20032;-87
2022/07/28 03:45:59;;;;;;;4.57;3.50;;;9.40;99.90;;;;;;5068246;28;20087;-86
2022/07/28 03:48:30;;;;;;;4.15;3.40;;;9.40;99.90;;;;;;5052397;28;20072;-86
2022/07/28 03:50:56;;;;;;;5.45;3.35;;;9.50;99.90;;;;;;5058478;28;20051;-86
2022/07/28 03:53:25;;;;;;;5.05;3.72;;;9.60;99.90;;;;;;5060416;28;20089;-87
2022/07/28 03:55:52;;;;;;;5.88;3.75;;;9.50;99.90;;;;;;5061262;28;20033;-86
2022/07/28 03:58:23;;;;;;;4.95;3.85;;;9.60;99.90;;;;;;5038243;28;20148;-86
2022/07/28 04:00:49;;;;;;;7.00;3.88;;;9.80;99.90;;;;;;5077590;28;20436;-86
2022/07/28 04:03:16;;;;;;;4.70;3.50;;;9.80;99.90;;;;;;5064071;28;20064;-87
2022/07/28 04:05:42;;;;;;;5.15;3.60;;;9.90;99.90;;;;;;5028503;28;20111;-86
2022/07/28 04:08:07;;;;;;;5.25;3.50;;;10.00;99.90;;;;;;5047379;28;20447;-87
2022/07/28 04:10:33;;;;;;;4.85;3.63;;;10.00;99.90;;;;;;5068679;28;20031;-86
2022/07/28 04:12:59;;;;;;;5.85;4.28;;;10.00;99.90;;;;;;5047064;28;20124;-86
2022/07/28 04:15:27;;;;;;;5.80;4.05;;;10.10;99.90;;;;;;5059652;28;20070;-86
2022/07/28 04:17:54;;;;;;;6.97;3.53;;;10.20;99.90;;;;;;5045693;28;20101;-86
2022/07/28 04:20:21;;;;;;;5.57;3.65;;;10.20;99.90;;;;;;5031540;28;20544;-86
2022/07/28 04:22:48;;;;;;;4.93;3.65;;;10.40;99.90;;;;;;5030312;28;20075;-86
2022/07/28 04:25:15;;;;;;;5.35;4.05;;;10.40;99.90;;;;;;5051508;28;20127;-86
2022/07/28 04:27:42;;;;;;;6.22;3.72;;;10.40;99.90;;;;;;5057467;28;20036;-87
2022/07/28 04:30:16;;;;;;;6.18;4.03;;;10.40;99.90;;;;;;5045519;28;20047;-87
2022/07/28 04:32:46;;;;;;;4.95;3.50;;;10.50;99.90;;;;;;5025406;28;20115;-87
2022/07/28 04:35:12;;;;;;;3.90;3.33;;;10.60;99.90;;;;;;5077756;28;20040;-86
2022/07/28 04:37:38;;;;;;;4.53;3.50;;;10.60;99.90;;;;;;5018301;28;20498;-87
2022/07/28 04:40:08;;;;;;;5.22;4.00;;;10.70;99.90;;;;;;5078167;28;20463;-87
2022/07/28 04:42:35;;;;;;;7.43;4.22;;;10.70;99.90;;;;;;5048232;28;20109;-86
2022/07/28 04:45:01;;;;;;;5.10;3.85;;;10.80;99.90;;;;;;5062545;28;20044;-86
2022/07/28 04:47:28;;;;;;;6.15;3.83;;;10.80;99.90;;;;;;5049009;28;20040;-86
2022/07/28 04:49:54;;;;;;;4.75;3.63;;;10.80;99.90;;;;;;5051810;28;20059;-86
2022/07/28 04:52:20;;;;;;;4.78;3.70;;;10.90;99.90;;;;;;5075381;28;20491;-87
2022/07/28 04:54:46;;;;;;;8.40;4.25;;;11.10;99.90;;;;;;5035398;28;20118;-86
2022/07/28 04:57:12;;;;;;;5.60;4.13;;;11.10;99.90;;;;;;5048895;28;20041;-86
2022/07/28 04:59:41;;;;;;;6.40;3.95;;;11.10;99.90;;;;;;5031942;28;20370;-87
2022/07/28 05:02:07;;;;;;;8.85;4.18;;;11.20;99.90;;;;;;5072503;28;20447;-86
2022/07/28 05:04:34;;;;;;;6.55;4.30;;;11.20;99.90;;;;;;5046571;28;20043;-87
2022/07/28 05:06:59;;;;;;;4.38;3.92;;;11.20;99.90;;;;;;5058025;28;20046;-86
2022/07/28 05:09:25;;;;;;;6.13;4.13;;;11.30;99.90;;;;;;5047604;28;20356;-87
2022/07/28 05:11:51;;;;;;;5.68;3.80;;;11.40;99.90;;;;;;5049729;28;20511;-87
2022/07/28 05:14:18;;;;;;;6.95;4.03;;;11.40;99.90;;;;;;5034444;28;20131;-86
2022/07/28 05:16:44;;;;;;;6.13;3.97;;;11.50;99.90;;;;;;5052113;28;20039;-87
2022/07/28 05:19:10;;;;;;;4.88;3.88;;;11.60;99.90;;;;;;5050591;28;20044;-86
2022/07/28 05:21:38;;;;;;;7.07;3.92;;;11.70;99.90;;;;;;5058389;28;20392;-86
2022/07/28 05:24:04;;;;;;;7.68;4.10;;;11.80;99.90;;;;;;5051026;28;20040;-87
2022/07/28 05:26:31;;;;;;;5.47;3.70;;;11.80;99.90;;;;;;5055735;28;20052;-87
2022/07/28 05:28:57;;;;;;;4.85;4.00;;;11.80;99.90;;;;;;5077664;28;20115;-86
2022/07/28 05:31:26;;;;;;;4.70;3.75;;;11.80;99.90;;;;;;5026458;28;20049;-87
2022/07/28 05:33:52;;;;;;;4.65;3.60;;;11.90;99.90;;;;;;5031325;28;20028;-86
2022/07/28 05:36:17;;;;;;;7.57;3.88;;;12.00;99.90;;;;;;5032433;28;20047;-87
2022/07/28 05:38:43;;;;;;;6.25;3.75;;;12.00;99.90;;;;;;5049620;28;20032;-86
2022/07/28 05:41:08;;;;;;;3.95;3.55;;;12.00;99.90;;;;;;5061640;28;20036;-86
2022/07/28 05:43:36;;;;;;;4.68;3.70;;;12.20;99.90;;;;;;5030029;28;20040;-87
2022/07/28 05:46:03;;;;;;;7.03;3.63;;;12.20;99.90;;;;;;5058037;28;20464;-85
2022/07/28 05:48:29;;;;;;;4.53;3.90;;;12.20;99.90;;;;;;5033024;28;20044;-86
2022/07/28 05:50:55;;;;;;;5.53;3.80;;;12.10;99.90;;;;;;5057337;28;20533;-87
2022/07/28 05:53:21;;;;;;;6.63;3.90;;;12.10;99.90;;;;;;5048637;28;20039;-87
2022/07/28 05:55:48;;;;;;;5.95;4.10;;;12.30;99.90;;;;;;5051262;28;20032;-87
2022/07/28 05:58:14;;;;;;;8.30;4.07;;;12.30;99.90;;;;;;5043820;28;20040;-86
2022/07/28 06:00:40;;;;;;;7.57;3.75;;;12.40;99.90;;;;;;5075579;28;20032;-87
2022/07/28 06:03:06;;;;;;;5.30;3.78;;;12.60;99.90;;;;;;5036996;28;20225;-87
2022/07/28 06:05:32;;;;;;;5.07;3.40;;;12.70;99.90;;;;;;5030762;28;20035;-88
2022/07/28 06:07:59;;;;;;;6.75;3.38;;;12.80;99.90;;;;;;5054964;28;20522;-87
2022/07/28 06:10:26;;;;;;;3.88;3.10;;;12.90;99.90;;;;;;5045503;28;20047;-87
2022/07/28 06:12:54;;;;;;;6.15;3.75;;;13.10;99.90;;;;;;5050488;28;20048;-86
2022/07/28 06:15:26;;;;;;;5.18;3.55;;;13.30;99.90;;;;;;5056796;28;20033;-87
2022/07/28 06:17:54;;;;;;;3.83;3.28;;;13.40;99.90;;;;;;5049056;28;20041;-87
2022/07/28 06:20:24;;;;;;;5.70;3.22;;;13.60;48.40;;;;;;5060735;28;20044;-87
2022/07/28 06:22:52;;;;;;;4.82;2.83;;;13.80;17.50;;;;;;5059869;28;20048;-88
2022/07/28 06:25:21;;;;;;;6.18;3.20;;;13.80;1.00;;;;;;5076675;28;20048;-87
2022/07/28 06:27:48;;;;;;;6.03;2.80;;;14.10;1.00;;;;;;5031161;28;20489;-88
2022/07/28 06:30:17;;;;;;;3.95;3.10;;;14.20;1.00;;;;;;5051283;28;20410;-87
2022/07/28 06:32:44;;;;;;;5.20;2.90;;;14.40;89.80;;;;;;5070146;28;20054;-86
2022/07/28 06:35:13;;;;;;;4.03;2.33;;;14.50;1.00;;;;;;5033939;28;20083;-87
2022/07/28 06:37:39;;;;;;;4.63;2.47;;;14.60;99.90;;;;;;5031640;28;20119;-87
2022/07/28 06:40:06;;;;;;;6.20;2.22;;;14.60;99.90;;;;;;5074484;28;20147;-87
2022/07/28 06:42:32;;;;;;;6.65;3.47;;;14.80;1.00;;;;;;5050983;28;20851;-87
2022/07/28 06:44:57;;;;;;;3.78;2.17;;;14.90;99.90;;;;;;5046960;28;20099;-87
2022/07/28 06:47:23;;;;;;;6.25;2.42;;;15.00;99.90;;;;;;5058705;28;20070;-87
2022/07/28 06:49:49;;;;;;;3.92;1.77;;;15.10;1.00;;;;;;5049791;28;20029;-87
2022/07/28 06:52:17;;;;;;;4.32;1.90;;;15.20;99.90;;;;;;5025164;28;20845;-88
2022/07/28 06:54:42;;;;;;;3.65;1.80;;;15.20;99.90;;;;;;5033832;28;20192;-87
2022/07/28 06:57:08;;;;;;;5.10;1.80;;;15.30;99.90;;;;;;5036536;28;20076;-87
2022/07/28 06:59:34;;;;;;;8.30;2.33;;;15.20;99.90;;;;;;5035794;28;20631;-87
2022/07/28 07:02:01;;;;;;;5.38;2.30;;;15.30;99.90;;;;;;5036552;28;20036;-87
2022/07/28 07:04:29;;;;;;;6.03;2.40;;;15.40;99.90;;;;;;5063017;28;20120;-87
2022/07/28 07:06:55;;;;;;;6.18;2.20;;;15.50;99.90;;;;;;5052103;28;20510;-87
2022/07/28 07:09:21;;;;;;;8.25;2.50;;;15.60;99.90;;;;;;5068039;28;20048;-88
2022/07/28 07:11:46;;;;;;;4.47;2.20;;;15.80;99.90;;;;;;5065125;28;20052;-88
2022/07/28 07:14:12;;;;;;;6.15;2.10;;;15.80;99.90;;;;;;5061942;28;20065;-87
2022/07/28 07:16:38;;;;;;;4.35;2.08;;;16.10;99.90;;;;;;5079135;28;20043;-87
2022/07/28 07:19:03;;;;;;;3.97;1.98;;;16.20;99.90;;;;;;5048906;28;20625;-88
2022/07/28 07:21:29;;;;;;;5.80;1.80;;;16.20;63.40;;;;;;5033910;28;20510;-87
2022/07/28 07:23:55;;;;;;;7.63;1.80;;;16.40;21.20;;;;;;5083069;28;20487;-87
2022/07/28 07:26:21;;;;;;;8.63;2.22;;;16.50;32.40;;;;;;5040018;28;20056;-88
2022/07/28 07:28:46;;;;;;;4.72;1.83;;;16.70;88.80;;;;;;5035619;28;20252;-87
2022/07/28 07:31:12;;;;;;;5.93;1.63;;;16.60;1.00;;;;;;5035803;28;20625;-87
2022/07/28 07:33:38;;;;;;;3.72;1.60;;;16.50;1.00;;;;;;5066428;28;20037;-87
2022/07/28 07:36:04;;;;;;;3.10;1.60;;;16.60;1.00;;;;;;5048433;28;20086;-87
2022/07/28 07:38:30;;;;;;;11.65;2.35;;;16.70;1.00;;;;;;5046881;28;20047;-87
2022/07/28 07:40:56;;;;;;;5.90;2.85;;;16.70;1.00;;;;;;5079162;28;20389;-87
2022/07/28 07:43:25;;;;;;;4.30;1.70;;;16.90;1.00;;;;;;5036671;28;20098;-86
2022/07/28 07:45:51;;;;;;;8.90;2.03;;;16.90;1.00;;;;;;5074585;28;20410;-86
2022/07/28 07:48:17;;;;;;;12.05;3.60;;;16.60;16.30;;;;;;5050933;28;20173;-87
2022/07/28 07:50:43;;;;;;;9.50;2.88;;;16.30;92.50;;;;;;5050924;28;20036;-86
2022/07/28 07:53:09;;;;;;;4.82;2.00;;;15.90;99.90;;;;;;5060082;28;20065;-86
2022/07/28 07:55:36;;;;;;;5.82;2.25;;;16.10;99.90;;;;;;5041451;28;20135;-86
2022/07/28 07:58:02;;;;;;;6.85;1.80;;;16.10;99.90;;;;;;5055554;28;20445;-86
2022/07/28 08:00:29;;;;;;;4.72;1.77;;;16.00;99.90;;;;;;5050003;28;20043;-87
2022/07/28 08:02:55;;;;;;;2.65;1.77;;;16.10;99.90;;;;;;5069697;28;20502;-87
2022/07/28 08:05:20;;;;;;;7.03;2.20;;;16.10;99.90;;;;;;5048131;28;20113;-87
2022/07/28 08:07:46;;;;;;;4.82;2.60;;;16.10;99.90;;;;;;5032511;28;20032;-87
2022/07/28 08:10:12;;;;;;;6.82;2.88;;;15.80;99.90;;;;;;5049304;28;20572;-87
2022/07/28 08:12:38;;;;;;;6.50;2.40;;;15.80;99.90;;;;;;5037207;28;20032;-87
2022/07/28 08:15:04;;;;;;;7.20;2.38;;;15.90;99.90;;;;;;5031226;28;20040;-87
2022/07/28 08:17:30;;;;;;;5.05;2.20;;;15.90;78.90;;;;;;5046757;28;20050;-87
2022/07/28 08:19:55;;;;;;;7.18;2.25;;;16.00;99.90;;;;;;5050831;28;20045;-87
2022/07/28 08:22:21;;;;;;;4.00;2.00;;;16.20;56.80;;;;;;5031702;28;20036;-87
2022/07/28 08:24:47;;;;;;;3.72;2.00;;;16.40;3.00;;;;;;5051288;28;20124;-87
2022/07/28 08:27:13;;;;;;;5.38;1.75;;;16.70;1.00;;;;;;5033387;28;20145;-87
2022/07/28 08:29:39;;;;;;;7.18;2.20;;;16.40;1.00;;;;;;5060295;28;20508;-87
2022/07/28 08:32:05;;;;;;;5.45;3.00;;;16.30;1.00;;;;;;5047366;28;20044;-87
2022/07/28 08:34:32;;;;;;;4.55;3.28;;;16.40;1.00;;;;;;5034417;28;20047;-87
2022/07/28 08:37:02;;;;;;;6.32;1.85;;;16.70;1.00;;;;;;5045857;28;20093;-88
2022/07/28 08:39:28;;;;;;;17.42;3.92;;;16.90;1.00;;;;;;5047951;28;20085;-86
2022/07/28 08:42:06;;;;;;;3.50;1.65;;;16.80;1.00;;;;;;5049989;28;20040;-86
2022/07/28 08:44:53;;;;;;;4.03;1.67;;;17.30;1.00;;;;;;5047139;28;20051;-86
2022/07/28 08:47:20;;;;;;;2.30;1.40;;;17.50;1.00;;;;;;5086642;28;20235;-86
2022/07/28 08:49:48;;;;;;;4.70;1.50;;;17.80;1.00;;;;;;5029800;28;20274;-86
2022/07/28 08:52:14;;;;;;;3.72;1.67;;;18.20;1.00;;;;;;5053585;28;20572;-87
2022/07/28 08:54:47;;;;;;;4.10;1.60;;;18.10;99.90;;;;;;5083692;28;20037;-87
2022/07/28 08:57:19;;;;;;;5.20;1.70;;;18.40;99.90;;;;;;5070155;28;20127;-86
2022/07/28 08:59:47;;;;;;;2.67;1.50;;;18.70;99.90;;;;;;5038677;28;20104;-87
2022/07/28 09:02:14;;;;;;;2.45;1.30;;;18.70;99.90;;;;;;5068373;28;20441;-88
2022/07/28 09:04:41;;;;;;;3.08;1.70;;;18.90;99.90;;;;;;5070282;28;20051;-87
2022/07/28 09:07:13;;;;;;;19.92;2.20;;;19.10;99.90;;;;;;5051220;28;20344;-87
2022/07/28 09:09:39;;;;;;;5.30;1.70;;;18.20;99.90;;;;;;5083419;28;20051;-88
2022/07/28 09:12:05;;;;;;;4.13;2.08;;;18.70;99.90;;;;;;5060440;28;20446;-88
2022/07/28 09:14:32;;;;;;;4.10;1.60;;;19.10;99.90;;;;;;5050979;28;20040;-86
2022/07/28 09:17:02;;;;;;;3.17;1.20;;;19.50;99.90;;;;;;5062142;28;20079;-87
2022/07/28 09:19:28;;;;;;;5.28;1.20;;;19.40;99.90;;;;;;5067442;28;20414;-87
2022/07/28 09:21:57;;;;;;;4.35;1.45;;;19.50;99.90;;;;;;5044354;28;20044;-87
2022/07/28 09:24:41;;;;;;;3.95;1.30;;;19.70;99.90;;;;;;5050680;28;20124;-87
2022/07/28 09:27:11;;;;;;;2.08;1.23;;;20.00;99.90;;;;;;5075236;28;20252;-87
2022/07/28 09:29:40;;;;;;;3.35;1.35;;;20.20;99.90;;;;;;5070061;28;20060;-87
2022/07/28 09:32:06;;;;;;;2.05;1.10;;;20.30;99.90;;;;;;5038099;28;20179;-87
2022/07/28 09:34:40;;;;;;;2.90;1.20;;;20.50;99.90;;;;;;5064871;28;20444;-87
2022/07/28 09:37:14;;;;;;;3.58;1.25;;;20.70;99.90;;;;;;5031893;28;20044;-87
2022/07/28 09:39:41;;;;;;;3.03;1.33;;;20.40;99.90;;;;;;5089193;28;20043;-86
2022/07/28 09:42:06;;;;;;;3.88;1.55;;;20.60;99.90;;;;;;5046379;28;20324;-87
2022/07/28 09:44:32;;;;;;;2.13;1.33;;;20.50;99.90;;;;;;5059158;28;20431;-86
2022/07/28 09:46:57;;;;;;;2.15;1.08;;;20.40;99.90;;;;;;5050063;28;20048;-87
2022/07/28 09:49:42;;;;;;;4.95;1.08;;;20.90;99.90;;;;;;5076842;28;20179;-87
2022/07/28 09:52:08;;;;;;;1.77;1.05;;;21.00;99.90;;;;;;5053989;28;20052;-87
2022/07/28 09:54:33;;;;;;;2.25;1.00;;;21.30;99.90;;;;;;5049925;28;20074;-87
2022/07/28 09:56:59;;;;;;;2.53;1.00;;;21.10;99.90;;;;;;5071154;28;20500;-87
2022/07/28 09:59:25;;;;;;;2.75;0.90;;;21.20;99.90;;;;;;5032118;28;20448;-88
2022/07/28 10:01:59;;;;;;;2.15;1.00;;;21.40;99.90;;;;;;5070189;28;20036;-87
2022/07/28 10:04:36;;;;;;;1.73;0.90;;;21.50;99.90;;;;;;5051196;28;20434;-86
2022/07/28 10:07:15;;;;;;;2.17;1.05;;;21.40;99.90;;;;;;5038890;28;20037;-87
2022/07/28 10:09:42;;;;;;;1.85;0.95;;;21.40;99.90;;;;;;5075009;28;20044;-87
2022/07/28 10:12:23;;;;;;;2.67;1.02;;;21.40;99.90;;;;;;5041555;28;20219;-86
2022/07/28 10:14:52;;;;;;;4.65;1.23;;;21.70;99.90;;;;;;5056346;28;20044;-87
2022/07/28 10:17:27;;;;;;;4.75;1.13;;;21.20;99.90;;;;;;5030797;28;20036;-86
2022/07/28 10:19:57;;;;;;;2.15;0.95;;;21.30;99.90;;;;;;5031547;28;20107;-88
2022/07/28 10:22:32;;;;;;;2.80;1.15;;;21.50;99.90;;;;;;5033108;28;20051;-89
2022/07/28 10:25:01;;;;;;;2.65;1.05;;;21.30;99.90;;;;;;5065712;28;20036;-88
2022/07/28 10:27:28;;;;;;;4.95;1.15;;;21.50;99.90;;;;;;5061634;28;20075;-88
2022/07/28 10:29:58;;;;;;;6.97;1.27;;;21.40;99.90;;;;;;5051814;28;20041;-88
2022/07/28 10:32:25;;;;;;;5.13;1.25;;;21.10;99.90;;;;;;5052720;28;20448;-88
2022/07/28 10:35:24;;;;;;;3.50;1.55;;;21.20;99.90;;;;;;5056848;28;20047;-88
2022/07/28 10:38:13;;;;;;;3.85;1.58;;;21.40;99.90;;;;;;4995776;28;20496;-88
2022/07/28 10:40:43;;;;;;;4.45;1.25;;;21.20;99.90;;;;;;5038529;28;20036;-89
2022/07/28 10:43:10;;;;;;;3.17;1.42;;;21.30;99.90;;;;;;5061617;28;20052;-89
2022/07/28 10:45:37;;;;;;;3.22;1.50;;;21.40;99.90;;;;;;5048870;28;20135;-89
2022/07/28 10:48:04;;;;;;;2.53;1.50;;;21.80;99.90;;;;;;5034039;28;20040;-88
2022/07/28 10:50:32;;;;;;;3.97;1.58;;;21.90;99.90;;;;;;5049313;28;20098;-89
2022/07/28 10:52:59;;;;;;;2.25;1.27;;;21.90;99.90;;;;;;5063279;28;20046;-89
2022/07/28 10:55:43;;;;;;;5.07;1.58;;;22.00;99.90;;;;;;5038120;28;20464;-88
2022/07/28 10:58:17;;;;;;;6.50;1.60;;;21.90;99.90;;;;;;5053156;28;20225;-88
2022/07/28 11:00:51;;;;;;;4.45;1.60;;;22.10;99.90;;;;;;5051334;28;20842;-88
2022/07/28 11:03:36;;;;;;;4.95;1.35;;;22.20;99.90;;;;;;5036289;28;20040;-88
2022/07/28 11:06:22;;;;;;;1.75;1.08;;;22.60;99.90;;;;;;5060978;28;20412;-88
2022/07/28 11:08:48;;;;;;;2.72;1.17;;;22.40;99.90;;;;;;5034275;28;20063;-89
2022/07/28 11:11:14;;;;;;;3.60;1.05;;;22.60;99.90;;;;;;5033333;28;20032;-88
2022/07/28 11:13:40;;;;;;;5.22;1.30;;;22.70;99.90;;;;;;5059892;28;20430;-89
2022/07/28 11:16:14;;;;;;;2.97;1.35;;;22.70;99.90;;;;;;5050492;28;20036;-88
2022/07/28 11:18:59;;;;;;;;;;;22.80;97.10;;;;;;5051126;28;20112;-88
2022/07/28 11:21:25;;;;;;;3.90;0.95;;;22.70;94.90;;;;;;5070730;28;20631;-89
2022/07/28 11:23:56;;;;;;;1.38;0.98;;;22.60;90.50;;;;;;5030198;28;20717;-87
2022/07/28 11:26:22;;;;;;;1.23;0.80;;;23.00;86.80;;;;;;5031154;28;20040;-89
2022/07/28 11:28:57;;;;;;;2.13;1.05;;;23.00;81.10;;;;;;5063429;28;20036;-89
2022/07/28 11:31:45;;;;;;;2.22;1.00;;;23.60;82.40;;;;;;5038548;28;20051;-89
2022/07/28 11:34:24;;;;;;;2.67;1.00;;;23.90;75.00;;;;;;5085183;28;20280;-89
2022/07/28 11:37:06;;;;;;;1.85;0.90;;;23.10;58.10;;;;;;5049974;28;20487;-90
2022/07/28 11:39:35;;;;;;;3.90;1.20;;;23.30;67.40;;;;;;5044184;28;20448;-89
2022/07/28 11:42:27;;;;;;;7.05;1.48;;;23.50;64.90;;;;;;5062028;28;20379;-88
2022/07/28 11:44:54;;;;;;;5.43;1.35;;;22.40;33.00;;;;;;5050651;28;20063;-88
2022/07/28 11:47:22;;;;;;;2.00;1.08;;;22.40;51.80;;;;;;5052569;28;20066;-89
2022/07/28 11:50:15;;;;;;;4.57;1.10;;;22.10;60.00;;;;;;5057915;28;20514;-89
2022/07/28 11:52:55;;;;;;;2.70;1.17;;;22.20;60.00;;;;;;5032646;28;20040;-88
2022/07/28 11:55:21;;;;;;;2.67;1.05;;;21.70;60.80;;;;;;5035711;28;20826;-88
2022/07/28 11:57:49;;;;;;;2.95;1.10;;;20.20;56.80;;;;;;5061989;28;20039;-89
2022/07/28 12:00:23;;;;;;;3.42;1.20;;;19.90;79.80;;;;;;5071711;28;20852;-89
2022/07/28 12:02:49;;;;;;;3.25;1.30;;;19.90;95.40;;;;;;5065997;28;20037;-89
2022/07/28 12:05:16;;;;;;;2.25;1.42;;;19.50;98.00;;;;;;5035321;28;20044;-89
2022/07/28 12:07:51;;;;;;;2.53;1.02;;;20.40;98.70;;;;;;5055941;28;21292;-89
2022/07/28 12:10:31;;;;;;;2.08;1.10;;;21.90;96.30;;;;;;5074251;28;20048;-89
2022/07/28 12:13:07;;;;;;;3.53;1.20;;;21.50;87.90;;;;;;5032601;28;20055;-90
2022/07/28 12:15:36;;;;;;;3.38;1.20;;;20.60;79.70;;;;;;5050278;28;20592;-90
2022/07/28 12:18:02;;;;;;;2.25;1.20;;;20.30;76.60;;;;;;5033872;28;20088;-87
2022/07/28 12:20:31;;;;;;;2.20;1.00;;;20.70;90.80;;;;;;5044420;28;20123;-90
2022/07/28 12:23:00;;;;;;;1.80;0.90;;;21.00;91.60;;;;;;5032929;28;20399;-90
2022/07/28 12:25:27;;;;;;;2.05;1.23;;;21.30;89.40;;;;;;5029720;28;20044;-90
2022/07/28 12:27:53;;;;;;;2.85;1.08;;;21.30;83.10;;;;;;5035460;28;21488;-88
2022/07/28 12:30:27;;;;;;;4.95;1.20;;;20.90;80.70;;;;;;5058553;28;20047;-89
2022/07/28 12:32:54;;;;;;;2.47;1.00;;;21.40;76.40;;;;;;5058085;28;20052;-88
2022/07/28 12:35:22;;;;;;;4.38;1.33;;;22.50;87.80;;;;;;5049290;28;20282;-89
2022/07/28 12:37:49;;;;;;;3.03;1.00;;;21.40;59.00;;;;;;5036934;28;20032;-90
2022/07/28 12:40:17;;;;;;;2.38;1.10;;;21.70;64.40;;;;;;5051346;28;20132;-90
2022/07/28 12:42:44;;;;;;;1.98;1.00;;;21.00;60.40;;;;;;5035362;28;20143;-91
2022/07/28 12:45:11;;;;;;;4.78;1.20;;;21.10;76.30;;;;;;5076150;28;20049;-89
2022/07/28 12:47:37;;;;;;;3.80;1.25;;;21.00;56.70;;;;;;5020353;28;20127;-92
2022/07/28 12:50:21;;;;;;;3.50;1.00;;;21.00;59.60;;;;;;5081396;28;20124;-91
2022/07/28 12:53:21;;;;;;;8.38;1.50;;;22.00;63.20;;;;;;5033307;28;20204;-91
2022/07/28 12:55:47;;;;;;;1.30;0.93;;;22.20;54.90;;;;;;5035769;28;21393;-89
2022/07/28 12:58:25;;;;;;;8.68;1.30;;;21.90;57.60;;;;;;5063587;28;20044;-89
2022/07/28 13:00:52;;;;;;;1.98;1.23;;;22.00;42.70;;;;;;5028317;28;20115;-91
2022/07/28 13:03:26;;;;;;;2.72;1.00;;;22.00;41.70;;;;;;5038250;28;20082;-89